Terminal Aerodrome Forecast
Issued by NWS Springfield, MO

Home | Current Version | Previous Version | Text Only | Print | Product List | Glossary On
Versions: 1 2 3 4 5 6 7 8 9 10 11 12
282
FTUS43 KSGF 230520
TAFSGF
TAF
KSGF 230520Z 2306/2406 20007KT P6SM BKN200
     FM231300 25006KT P6SM BKN200
     FM231600 28007KT P6SM VCTS SCT050CB BKN150
     FM231900 31007KT P6SM VCTS SCT050CB BKN150
     FM240000 35005KT P6SM SCT150
     FM240200 05004KT P6SM BKN200=

USA.gov is the U.S. government's official web portal to all federal, state and local government web resources and services.